createdAt,value
2018-12-19T00:02:03.539Z,6.95
2018-12-19T00:04:31.257Z,7.25
2018-12-19T00:06:58.831Z,5.30
2018-12-19T00:09:27.139Z,4.85
2018-12-19T00:11:54.671Z,6.25
2018-12-19T00:14:22.195Z,5.97
2018-12-19T00:16:49.763Z,3.05
2018-12-19T00:19:17.277Z,3.60
2018-12-19T00:21:44.883Z,8.25
2018-12-19T00:24:12.428Z,7.03
2018-12-19T00:26:39.996Z,4.03
2018-12-19T00:29:07.505Z,8.33
2018-12-19T00:31:35.037Z,5.67
2018-12-19T00:34:02.592Z,8.23
2018-12-19T00:36:30.095Z,8.50
2018-12-19T00:38:57.533Z,9.08
2018-12-19T00:41:25.017Z,6.75
2018-12-19T00:43:52.511Z,9.08
2018-12-19T00:46:19.899Z,6.53
2018-12-19T00:48:47.425Z,7.10
2018-12-19T00:51:14.890Z,5.87
2018-12-19T00:53:42.365Z,7.83
2018-12-19T00:56:09.848Z,6.75
2018-12-19T00:58:37.385Z,9.80
2018-12-19T01:01:04.907Z,7.72
2018-12-19T01:03:32.287Z,6.47
2018-12-19T01:05:59.819Z,7.30
2018-12-19T01:08:27.319Z,4.40
2018-12-19T01:10:54.797Z,7.72
2018-12-19T01:13:22.345Z,7.78
2018-12-19T01:15:49.817Z,5.90
2018-12-19T01:18:17.299Z,6.03
2018-12-19T01:20:44.837Z,4.83
2018-12-19T01:23:12.999Z,5.40
2018-12-19T01:25:40.493Z,7.58
2018-12-19T01:28:07.930Z,8.68
2018-12-19T01:30:35.454Z,6.87
2018-12-19T01:33:02.846Z,5.95
2018-12-19T01:35:30.355Z,7.72
2018-12-19T01:37:57.845Z,7.35
2018-12-19T01:40:25.349Z,8.65
2018-12-19T01:42:52.897Z,6.72
2018-12-19T01:45:20.397Z,10.18
2018-12-19T01:47:48.021Z,6.95
2018-12-19T01:50:15.520Z,5.20
2018-12-19T01:52:43.037Z,6.97
2018-12-19T01:55:10.520Z,6.30
2018-12-19T01:57:38.011Z,5.40
2018-12-19T02:00:05.856Z,7.70
2018-12-19T02:02:33.975Z,5.70
2018-12-19T02:05:01.377Z,6.72
2018-12-19T02:07:28.859Z,2.72
2018-12-19T02:09:56.363Z,7.30
2018-12-19T02:12:23.765Z,6.05
2018-12-19T02:14:51.271Z,6.35
2018-12-19T02:17:18.727Z,7.67
2018-12-19T02:19:46.091Z,5.75
2018-12-19T02:22:13.606Z,6.53
2018-12-19T02:24:41.217Z,4.78
2018-12-19T02:27:08.693Z,7.72
2018-12-19T02:29:36.195Z,4.15
2018-12-19T02:32:07.963Z,5.33
2018-12-19T02:34:35.789Z,5.58
2018-12-19T02:37:03.297Z,4.47
2018-12-19T02:39:36.131Z,6.83
2018-12-19T02:42:00.324Z,4.50
2018-12-19T02:44:27.851Z,6.55
2018-12-19T02:46:55.410Z,6.25
2018-12-19T02:49:22.961Z,7.83
2018-12-19T02:51:50.456Z,11.12
2018-12-19T02:54:17.975Z,6.15
2018-12-19T02:56:45.476Z,6.12
2018-12-19T02:59:14.640Z,6.28
2018-12-19T03:01:42.119Z,6.85
2018-12-19T03:04:09.650Z,5.17
2018-12-19T03:06:37.164Z,7.58
2018-12-19T03:09:07.508Z,3.70
2018-12-19T03:11:34.980Z,5.67
2018-12-19T03:14:02.669Z,5.70
2018-12-19T03:16:30.280Z,8.30
2018-12-19T03:18:57.823Z,5.25
2018-12-19T03:21:25.304Z,3.62
2018-12-19T03:23:53.471Z,6.28
2018-12-19T03:26:20.972Z,4.00
2018-12-19T03:28:48.481Z,5.67
2018-12-19T03:31:16.014Z,4.25
2018-12-19T03:33:44.871Z,5.30
2018-12-19T03:36:12.496Z,4.92
2018-12-19T03:38:39.877Z,4.75
2018-12-19T03:41:07.529Z,6.83
2018-12-19T03:43:35.022Z,4.15
2018-12-19T03:46:02.420Z,4.25
2018-12-19T03:48:35.580Z,6.10
2018-12-19T03:51:03.184Z,5.20
2018-12-19T03:53:30.641Z,7.58
2018-12-19T03:55:58.240Z,3.65
2018-12-19T03:58:25.800Z,2.77
2018-12-19T04:00:53.321Z,2.40
2018-12-19T04:03:20.804Z,3.80
2018-12-19T04:05:48.260Z,3.60
2018-12-19T04:08:15.771Z,5.20
2018-12-19T04:10:43.508Z,6.08
2018-12-19T04:13:10.905Z,4.08
2018-12-19T04:15:38.395Z,4.85
2018-12-19T04:18:05.903Z,6.10
2018-12-19T04:20:33.399Z,5.42
2018-12-19T04:23:00.900Z,5.30
2018-12-19T04:25:28.403Z,5.15
2018-12-19T04:27:58.963Z,7.60
2018-12-19T04:30:26.839Z,6.42
2018-12-19T04:32:54.427Z,6.45
2018-12-19T04:35:22.063Z,5.97
2018-12-19T04:37:50.441Z,4.92
2018-12-19T04:40:17.939Z,6.37
2018-12-19T04:42:45.419Z,6.67
2018-12-19T04:45:12.915Z,5.78
2018-12-19T04:47:40.419Z,5.45
2018-12-19T04:50:07.948Z,8.03
2018-12-19T04:52:35.484Z,7.53
2018-12-19T04:55:03.563Z,8.43
2018-12-19T04:57:31.075Z,4.65
2018-12-19T04:59:58.569Z,5.00
2018-12-19T05:02:26.180Z,5.37
2018-12-19T05:04:53.753Z,5.78
2018-12-19T05:07:21.968Z,4.83
2018-12-19T05:09:49.439Z,9.58
2018-12-19T05:12:16.943Z,5.92
2018-12-19T05:14:44.479Z,5.75
2018-12-19T05:17:11.911Z,7.37
2018-12-19T05:19:39.556Z,5.80
2018-12-19T05:22:07.079Z,4.60
2018-12-19T05:24:34.804Z,7.20
2018-12-19T05:27:02.269Z,6.67
2018-12-19T05:29:29.744Z,12.30
2018-12-19T05:31:57.131Z,5.87
2018-12-19T05:34:24.606Z,6.50
2018-12-19T05:36:52.128Z,5.22
2018-12-19T05:39:19.715Z,4.70
2018-12-19T05:41:47.224Z,5.50
2018-12-19T05:44:14.754Z,5.70
2018-12-19T05:46:42.232Z,4.03
2018-12-19T05:49:09.856Z,5.87
2018-12-19T05:51:37.364Z,4.65
2018-12-19T05:54:04.859Z,4.75
2018-12-19T05:56:32.377Z,6.53
2018-12-19T05:58:59.945Z,5.42
2018-12-19T06:01:27.455Z,7.78
2018-12-19T06:03:55.101Z,4.87
2018-12-19T06:06:22.501Z,5.92
2018-12-19T06:08:49.983Z,6.30
2018-12-19T06:11:17.501Z,5.60
2018-12-19T06:13:45.006Z,5.53
2018-12-19T06:16:12.489Z,7.75
2018-12-19T06:18:39.979Z,4.75
2018-12-19T06:21:07.509Z,7.35
2018-12-19T06:23:35.024Z,6.95
2018-12-19T06:26:02.597Z,6.33
2018-12-19T06:28:30.077Z,7.42
2018-12-19T06:30:57.584Z,4.03
2018-12-19T06:33:25.108Z,5.90
2018-12-19T06:35:52.676Z,5.97
2018-12-19T06:38:20.334Z,4.47
2018-12-19T06:40:47.829Z,4.83
2018-12-19T06:43:15.340Z,5.37
2018-12-19T06:45:42.990Z,5.53
2018-12-19T06:48:10.508Z,4.93
2018-12-19T06:50:38.022Z,6.83
2018-12-19T06:53:05.494Z,5.40
2018-12-19T06:55:33.061Z,7.80
2018-12-19T06:58:00.544Z,4.97
2018-12-19T07:00:32.260Z,5.73
2018-12-19T07:02:59.772Z,5.90
2018-12-19T07:05:27.243Z,5.67
2018-12-19T07:07:55.688Z,3.57
2018-12-19T07:10:23.156Z,5.07
2018-12-19T07:12:50.620Z,5.30
2018-12-19T07:15:18.731Z,4.97
2018-12-19T07:17:46.671Z,5.93
2018-12-19T07:20:14.135Z,6.17
2018-12-19T07:22:41.659Z,6.00
2018-12-19T07:25:09.129Z,6.57
2018-12-19T07:27:36.635Z,8.23
2018-12-19T07:30:05.081Z,5.67
2018-12-19T07:32:32.611Z,8.63
2018-12-19T07:35:00.144Z,7.00
2018-12-19T07:37:27.817Z,5.57
2018-12-19T07:39:56.356Z,4.47
2018-12-19T07:42:24.163Z,5.00
2018-12-19T07:44:51.658Z,6.77
2018-12-19T07:47:19.098Z,5.10
2018-12-19T07:49:46.559Z,4.77
2018-12-19T07:52:14.052Z,7.13
2018-12-19T07:54:41.566Z,6.67
2018-12-19T07:57:09.037Z,6.63
2018-12-19T07:59:36.549Z,6.83
2018-12-19T08:02:04.306Z,7.20
2018-12-19T08:04:32.224Z,6.67
2018-12-19T08:06:59.707Z,5.97
2018-12-19T08:09:28.960Z,6.93
2018-12-19T08:11:56.441Z,5.85
2018-12-19T08:14:23.876Z,7.00
2018-12-19T08:16:52.050Z,4.33
2018-12-19T08:19:19.522Z,6.03
2018-12-19T08:21:47.032Z,5.08
2018-12-19T08:24:14.487Z,6.03
2018-12-19T08:26:41.954Z,8.77
2018-12-19T08:29:09.432Z,6.00
2018-12-19T08:31:37.020Z,5.78
2018-12-19T08:34:04.732Z,4.37
2018-12-19T08:36:32.182Z,7.43
2018-12-19T08:38:59.638Z,8.20
2018-12-19T08:41:27.099Z,8.57
2018-12-19T08:43:54.486Z,5.77
2018-12-19T08:46:22.044Z,6.40
2018-12-19T08:48:49.653Z,6.43
2018-12-19T08:51:17.100Z,10.43
2018-12-19T08:53:44.647Z,5.30
2018-12-19T08:56:12.210Z,4.50
2018-12-19T08:58:39.663Z,5.47
2018-12-19T09:01:07.099Z,4.40
2018-12-19T09:03:34.573Z,8.37
2018-12-19T09:06:01.929Z,6.20
2018-12-19T09:08:29.383Z,3.77
2018-12-19T09:10:57.777Z,3.20
2018-12-19T09:13:26.222Z,4.40
2018-12-19T09:15:53.879Z,3.60
2018-12-19T09:18:21.368Z,3.47
2018-12-19T09:20:48.799Z,4.97
2018-12-19T09:23:16.250Z,4.47
2018-12-19T09:25:44.460Z,4.40
2018-12-19T09:28:11.921Z,3.33
2018-12-19T09:30:39.472Z,2.63
2018-12-19T09:33:06.896Z,3.33
2018-12-19T09:35:35.098Z,2.50
2018-12-19T09:38:03.883Z,3.13
2018-12-19T09:40:31.344Z,3.80
2018-12-19T09:42:58.814Z,4.47
2018-12-19T09:45:26.275Z,2.60
2018-12-19T09:47:53.839Z,3.10
2018-12-19T09:50:21.309Z,3.80
2018-12-19T09:52:48.836Z,3.10
2018-12-19T09:55:16.299Z,3.40
2018-12-19T09:57:43.809Z,5.53
2018-12-19T10:00:17.324Z,4.83
2018-12-19T10:02:44.795Z,3.83
2018-12-19T10:05:12.404Z,3.63
2018-12-19T10:07:39.877Z,4.67
2018-12-19T10:10:07.418Z,2.43
2018-12-19T10:12:34.870Z,5.67
2018-12-19T10:15:02.469Z,4.33
2018-12-19T10:17:30.177Z,6.10
2018-12-19T10:19:57.706Z,3.23
2018-12-19T10:22:31.236Z,4.73
2018-12-19T10:25:04.926Z,2.67
2018-12-19T10:27:33.213Z,1.63
2018-12-19T10:30:00.699Z,4.83
2018-12-19T10:32:32.773Z,1.40
2018-12-19T10:35:00.216Z,1.73
2018-12-19T10:37:27.664Z,1.90
2018-12-19T10:39:55.324Z,1.67
2018-12-19T10:42:22.796Z,1.30
2018-12-19T10:44:50.228Z,2.37
2018-12-19T10:47:17.815Z,1.63
2018-12-19T10:49:45.396Z,1.20
2018-12-19T10:52:12.883Z,1.33
2018-12-19T10:54:40.357Z,1.40
2018-12-19T10:57:07.810Z,1.23
2018-12-19T10:59:35.365Z,1.83
2018-12-19T11:02:03.045Z,2.00
2018-12-19T11:04:30.532Z,1.73
2018-12-19T11:06:58.004Z,1.27
2018-12-19T11:09:25.976Z,3.10
2018-12-19T11:11:53.475Z,2.37
2018-12-19T11:14:20.919Z,1.90
2018-12-19T11:16:48.507Z,1.63
2018-12-19T11:19:15.951Z,2.03
2018-12-19T11:21:43.579Z,1.93
2018-12-19T11:24:11.096Z,4.17
2018-12-19T11:26:38.820Z,6.10
2018-12-19T11:29:06.533Z,2.47
2018-12-19T11:31:33.995Z,3.70
2018-12-19T11:34:01.424Z,2.60
2018-12-19T11:36:28.878Z,2.20
2018-12-19T11:38:56.321Z,2.20
2018-12-19T11:41:23.796Z,3.80
2018-12-19T11:43:51.345Z,2.27
2018-12-19T11:46:18.828Z,3.50
2018-12-19T11:48:46.325Z,4.63
2018-12-19T11:51:13.813Z,2.87
2018-12-19T11:53:41.435Z,5.37
2018-12-19T11:56:08.903Z,3.63
2018-12-19T11:58:37.395Z,3.40
2018-12-19T12:01:04.860Z,5.17
2018-12-19T12:03:32.326Z,5.80
2018-12-19T12:05:59.767Z,6.10
2018-12-19T12:08:27.243Z,10.07
2018-12-19T12:10:54.701Z,4.80
2018-12-19T12:13:22.139Z,5.63
2018-12-19T12:15:49.593Z,4.30
2018-12-19T12:18:17.067Z,6.70
2018-12-19T12:20:44.532Z,3.53
2018-12-19T12:23:12.023Z,4.07
2018-12-19T12:25:39.637Z,6.43
2018-12-19T12:28:07.117Z,2.67
2018-12-19T12:30:34.602Z,3.20
2018-12-19T12:33:02.103Z,3.10
2018-12-19T12:35:29.472Z,6.03
2018-12-19T12:37:56.836Z,6.13
2018-12-19T12:40:24.207Z,4.47
2018-12-19T12:42:51.703Z,2.17
2018-12-19T12:45:19.121Z,5.30
2018-12-19T12:47:46.451Z,3.10
2018-12-19T12:50:13.851Z,7.53
2018-12-19T12:52:41.211Z,4.03
2018-12-19T12:55:08.635Z,6.57
2018-12-19T12:57:36.091Z,3.83
2018-12-19T13:00:06.154Z,8.67
2018-12-19T13:02:33.637Z,6.47
2018-12-19T13:05:01.117Z,3.10
2018-12-19T13:07:29.183Z,5.13
2018-12-19T13:09:56.637Z,5.60
2018-12-19T13:12:24.201Z,5.00
2018-12-19T13:14:51.731Z,6.93
2018-12-19T13:17:19.228Z,7.17
2018-12-19T13:19:46.715Z,4.80
2018-12-19T13:22:14.218Z,6.70
2018-12-19T13:24:41.683Z,4.87
2018-12-19T13:27:09.133Z,4.73
2018-12-19T13:29:36.588Z,6.60
2018-12-19T13:32:04.083Z,4.37
2018-12-19T13:34:31.581Z,6.63
2018-12-19T13:36:58.984Z,4.97
2018-12-19T13:39:26.449Z,6.13
2018-12-19T13:41:54.120Z,6.43
2018-12-19T13:44:21.658Z,9.77
2018-12-19T13:46:49.232Z,7.67
2018-12-19T13:49:17.032Z,7.28
2018-12-19T13:51:44.540Z,4.43
2018-12-19T13:54:11.994Z,8.17
2018-12-19T13:56:39.640Z,4.40
2018-12-19T13:59:08.143Z,6.50
2018-12-19T14:01:36.647Z,3.80
2018-12-19T14:04:04.135Z,7.53
2018-12-19T14:06:31.673Z,7.37
2018-12-19T14:08:59.173Z,4.37
2018-12-19T14:11:26.681Z,5.00
2018-12-19T14:13:54.158Z,4.00
2018-12-19T14:16:21.668Z,6.30
2018-12-19T14:18:49.149Z,3.00
2018-12-19T14:21:16.625Z,10.30
2018-12-19T14:23:44.174Z,5.20
2018-12-19T14:26:11.794Z,5.63
2018-12-19T14:28:39.269Z,7.30
2018-12-19T14:31:06.773Z,9.10
2018-12-19T14:33:34.263Z,6.40
2018-12-19T14:36:02.401Z,3.47
2018-12-19T14:38:29.895Z,5.47
2018-12-19T14:40:58.251Z,7.17
2018-12-19T14:43:25.743Z,4.40
2018-12-19T14:45:53.203Z,5.07
2018-12-19T14:48:20.693Z,4.10
2018-12-19T14:50:48.194Z,4.87
2018-12-19T14:53:15.699Z,6.20
2018-12-19T14:55:43.139Z,3.00
2018-12-19T14:58:10.631Z,4.87
2018-12-19T15:00:38.194Z,5.03
2018-12-19T15:03:06.352Z,5.17
2018-12-19T15:05:33.940Z,10.90
2018-12-19T15:08:01.525Z,4.67
2018-12-19T15:10:29.016Z,11.20
2018-12-19T15:12:56.546Z,7.23
2018-12-19T15:15:24.026Z,6.03
2018-12-19T15:17:51.509Z,5.83
2018-12-19T15:20:19.237Z,6.67
2018-12-19T15:22:46.681Z,9.10
2018-12-19T15:25:14.238Z,7.77
2018-12-19T15:27:41.720Z,4.17
2018-12-19T15:30:09.100Z,5.33
2018-12-19T15:32:37.892Z,6.47
2018-12-19T15:35:05.778Z,8.03
2018-12-19T15:37:33.181Z,5.53
2018-12-19T15:40:00.719Z,7.73
2018-12-19T15:42:32.518Z,5.77
2018-12-19T15:44:59.272Z,8.70
2018-12-19T15:47:27.252Z,10.50
2018-12-19T15:49:54.973Z,7.37
2018-12-19T15:52:22.382Z,4.20
2018-12-19T15:54:49.804Z,4.67
2018-12-19T15:57:24.184Z,5.60
2018-12-19T15:59:51.632Z,8.33
2018-12-19T16:02:19.129Z,7.43
2018-12-19T16:04:46.780Z,4.43
2018-12-19T16:07:14.374Z,8.00
2018-12-19T16:09:41.782Z,5.43
2018-12-19T16:12:09.323Z,8.13
2018-12-19T16:14:36.841Z,7.30
2018-12-19T16:17:04.229Z,9.10
2018-12-19T16:19:32.705Z,5.70
2018-12-19T16:22:01.304Z,5.10
2018-12-19T16:24:28.855Z,6.10
2018-12-19T16:26:56.379Z,9.77
2018-12-19T16:29:23.870Z,6.97
2018-12-19T16:31:51.326Z,6.53
2018-12-19T16:34:18.823Z,8.53
2018-12-19T16:36:46.334Z,8.57
2018-12-19T16:39:13.890Z,6.30
2018-12-19T16:41:41.372Z,6.93
2018-12-19T16:44:08.904Z,10.33
2018-12-19T16:46:36.484Z,4.63
2018-12-19T16:49:04.140Z,9.40
2018-12-19T16:51:31.635Z,8.10
2018-12-19T16:53:59.240Z,11.53
2018-12-19T16:56:26.770Z,9.87
2018-12-19T16:58:54.328Z,13.23
2018-12-19T17:01:21.996Z,15.97
2018-12-19T17:03:49.444Z,13.50
2018-12-19T17:06:17.324Z,8.30
2018-12-19T17:08:44.886Z,13.60
2018-12-19T17:11:12.361Z,9.20
2018-12-19T17:13:39.884Z,8.17
2018-12-19T17:16:07.393Z,7.67
2018-12-19T17:18:36.430Z,8.77
2018-12-19T17:21:05.365Z,9.63
2018-12-19T17:23:32.825Z,7.83
2018-12-19T17:26:00.573Z,6.27
2018-12-19T17:28:28.126Z,8.00
2018-12-19T17:30:55.552Z,8.70
2018-12-19T17:33:23.222Z,6.00
2018-12-19T17:35:50.750Z,8.13
2018-12-19T17:38:18.175Z,9.67
2018-12-19T17:40:45.641Z,8.50
2018-12-19T17:43:13.177Z,12.40
2018-12-19T17:45:40.697Z,7.40
2018-12-19T17:48:08.565Z,5.00
2018-12-19T17:50:36.187Z,9.30
2018-12-19T17:53:03.636Z,12.40
2018-12-19T17:55:31.287Z,5.83
2018-12-19T17:57:58.869Z,8.97
2018-12-19T18:00:26.535Z,7.80
2018-12-19T18:02:53.961Z,8.50
2018-12-19T18:05:21.560Z,8.53
2018-12-19T18:07:49.099Z,5.60
2018-12-19T18:10:16.700Z,8.20
2018-12-19T18:12:44.187Z,7.60
2018-12-19T18:15:11.781Z,5.90
2018-12-19T18:17:39.377Z,5.00
2018-12-19T18:20:07.213Z,8.60
2018-12-19T18:22:34.616Z,8.00
2018-12-19T18:25:02.208Z,8.13
2018-12-19T18:27:29.759Z,5.70
2018-12-19T18:29:57.282Z,7.03
2018-12-19T18:32:24.838Z,7.53
2018-12-19T18:34:52.388Z,10.20
2018-12-19T18:37:19.914Z,10.77
2018-12-19T18:39:47.540Z,7.57
2018-12-19T18:42:15.095Z,6.57
2018-12-19T18:44:42.583Z,5.93
2018-12-19T18:47:10.519Z,7.53
2018-12-19T18:49:38.042Z,6.57
2018-12-19T18:52:05.827Z,5.63
2018-12-19T18:54:33.261Z,8.67
2018-12-19T18:57:00.794Z,7.17
2018-12-19T18:59:28.312Z,11.23
2018-12-19T19:01:55.811Z,11.97
2018-12-19T19:04:23.406Z,9.53
2018-12-19T19:06:50.958Z,7.47
2018-12-19T19:09:18.653Z,7.90
2018-12-19T19:11:46.182Z,12.87
2018-12-19T19:14:14.339Z,8.57
2018-12-19T19:16:41.884Z,11.70
2018-12-19T19:19:09.440Z,10.63
2018-12-19T19:21:37.016Z,10.00
2018-12-19T19:24:04.606Z,9.20
2018-12-19T19:26:32.360Z,10.07
2018-12-19T19:28:59.972Z,10.17
2018-12-19T19:31:27.542Z,9.20
2018-12-19T19:33:55.098Z,8.43
2018-12-19T19:36:22.636Z,7.43
2018-12-19T19:38:50.152Z,10.77
2018-12-19T19:41:17.593Z,9.60
2018-12-19T19:43:46.103Z,9.57
2018-12-19T19:46:13.977Z,11.67
2018-12-19T19:48:41.504Z,11.40
2018-12-19T19:51:09.025Z,13.17
2018-12-19T19:53:36.622Z,10.27
2018-12-19T19:56:04.295Z,8.23
2018-12-19T19:58:31.784Z,13.83
2018-12-19T20:00:59.387Z,13.10
2018-12-19T20:03:27.016Z,9.97
2018-12-19T20:05:54.504Z,7.97
2018-12-19T20:08:22.098Z,9.23
2018-12-19T20:10:49.683Z,8.03
2018-12-19T20:13:17.179Z,10.43
2018-12-19T20:15:44.881Z,11.03
2018-12-19T20:18:13.753Z,7.17
2018-12-19T20:20:41.494Z,8.87
2018-12-19T20:23:09.070Z,13.83
2018-12-19T20:25:36.627Z,11.40
2018-12-19T20:28:04.268Z,8.80
2018-12-19T20:30:31.840Z,9.10
2018-12-19T20:32:59.416Z,9.20
2018-12-19T20:35:26.939Z,8.60
2018-12-19T20:37:54.442Z,9.27
2018-12-19T20:40:22.072Z,9.07
2018-12-19T20:42:49.626Z,10.47
2018-12-19T20:45:17.044Z,9.93
2018-12-19T20:47:44.612Z,9.47
2018-12-19T20:50:12.710Z,11.77
2018-12-19T20:52:40.265Z,10.53
2018-12-19T20:55:07.809Z,10.00
2018-12-19T20:57:35.435Z,10.40
2018-12-19T21:00:04.145Z,8.00
2018-12-19T21:02:31.732Z,12.60
2018-12-19T21:05:00.077Z,10.17
2018-12-19T21:07:27.537Z,13.77
2018-12-19T21:09:55.055Z,9.40
2018-12-19T21:12:22.594Z,11.10
2018-12-19T21:14:50.100Z,10.37
2018-12-19T21:17:23.440Z,12.37
2018-12-19T21:19:50.972Z,16.87
2018-12-19T21:22:18.540Z,10.53
2018-12-19T21:24:45.946Z,10.53
2018-12-19T21:27:13.597Z,12.17
2018-12-19T21:29:41.584Z,10.87
2018-12-19T21:32:09.060Z,8.93
2018-12-19T21:34:36.608Z,9.80
2018-12-19T21:37:04.107Z,9.20
2018-12-19T21:39:31.663Z,11.70
2018-12-19T21:41:59.265Z,13.13
2018-12-19T21:44:26.804Z,11.97
2018-12-19T21:46:54.245Z,11.63
2018-12-19T21:49:21.995Z,9.43
2018-12-19T21:51:49.666Z,11.50
2018-12-19T21:54:17.275Z,12.67
2018-12-19T21:56:44.814Z,11.80
2018-12-19T21:59:12.458Z,11.37
2018-12-19T22:01:40.080Z,9.97
2018-12-19T22:04:07.646Z,16.33
2018-12-19T22:06:35.216Z,11.63
2018-12-19T22:09:05.398Z,12.07
2018-12-19T22:11:33.050Z,13.20
2018-12-19T22:14:00.950Z,11.50
2018-12-19T22:16:34.373Z,11.47
2018-12-19T22:19:01.904Z,10.40
2018-12-19T22:21:29.457Z,10.97
2018-12-19T22:23:56.992Z,12.47
2018-12-19T22:26:24.529Z,9.77
2018-12-19T22:28:52.192Z,9.83
2018-12-19T22:31:19.663Z,9.90
2018-12-19T22:33:47.321Z,14.63
2018-12-19T22:36:14.954Z,14.70
2018-12-19T22:38:42.608Z,13.53
2018-12-19T22:41:10.515Z,11.17
2018-12-19T22:43:37.947Z,10.90
2018-12-19T22:46:05.550Z,10.50
2018-12-19T22:48:33.103Z,14.40
2018-12-19T22:51:00.627Z,12.17
2018-12-19T22:53:28.144Z,12.07
2018-12-19T22:55:55.867Z,11.73
2018-12-19T22:58:23.476Z,9.93
2018-12-19T23:00:57.018Z,7.57
2018-12-19T23:03:30.394Z,11.80
2018-12-19T23:05:57.879Z,12.10
2018-12-19T23:08:25.728Z,12.27
2018-12-19T23:10:53.542Z,9.03
2018-12-19T23:13:21.151Z,10.47
2018-12-19T23:15:48.921Z,8.67
2018-12-19T23:18:22.066Z,8.20
2018-12-19T23:20:50.167Z,10.57
2018-12-19T23:23:17.764Z,10.63
2018-12-19T23:25:45.403Z,7.97
2018-12-19T23:28:13.311Z,7.97
2018-12-19T23:30:41.092Z,9.33
2018-12-19T23:33:08.795Z,7.23
2018-12-19T23:35:36.455Z,7.17
2018-12-19T23:38:04.119Z,9.13
2018-12-19T23:40:31.639Z,8.33
2018-12-19T23:42:59.362Z,5.93
2018-12-19T23:45:26.971Z,7.43
2018-12-19T23:47:54.649Z,7.30
2018-12-19T23:50:22.212Z,8.13
2018-12-19T23:52:50.152Z,7.03
2018-12-19T23:55:17.766Z,7.77
2018-12-19T23:57:45.300Z,10.60
